Flight Track Log - Related Links

Times and Time Zones

All times are in EDT time to prevent confusion due to time zone crossing. See the CTL337 flight status page for this flight to view local times or setup timezone preferences in your user account.

Time Position Orientation Groundspeed Altitude Reporting Facility
EDT Latitude Longitude Course Direction KTS MPH feet Rate Location/Type
Mon 10:02:23 PM 41.5233 -81.6703 347° North 89 102 1,000  Level Cleveland Center
Mon 10:03:00 PM 41.5419 -81.6761 347° North 106 122 1,600 866 Climbing Cleveland Center
Mon 10:04:00 PM 41.5583 -81.6986 314° West 106 122 2,400 744 Climbing Cleveland Center
Mon 10:05:01 PM 41.5581 -81.7375 269° West 106 122 3,100 694 Climbing Cleveland Center
Mon 10:06:01 PM 41.5347 -81.7675 224° Southwest 103 119 3,800 661 Climbing Cleveland Center
Mon 10:07:08 PM 41.5094 -81.7919 216° Southwest 104 120 4,500 750 Climbing Cleveland Center
Mon 10:08:09 PM 41.4844 -81.8139 213° Southwest 107 123 5,400 826 Climbing Cleveland Center
Mon 10:08:57 PM 41.4633 -81.8356 218° Southwest 115 132 6,000 385 Climbing Cleveland Center
Mon 10:09:58 PM 41.4339 -81.8628 215° Southwest 146 168 6,100 50 Climbing Cleveland Center
Mon 10:10:58 PM 41.3978 -81.8981 216° Southwest 159 183 6,100 50 Level Cleveland Center
Mon 10:11:59 PM 41.3600 -81.9275 210° Southwest 154 177 6,200 49 Climbing Cleveland Center
Mon 10:13:00 PM 41.3222 -81.9628 215° Southwest 156 180 6,200 -50 Level Cleveland Center
Mon 10:14:00 PM 41.2864 -81.9953 214° Southwest 157 181 6,100  Descending Cleveland Center
Mon 10:15:01 PM 41.2483 -82.0303 215° Southwest 158 182 6,200 52 Climbing Cleveland Center
Mon 10:15:55 PM 41.2167 -82.0600 215° Southwest 159 183 6,200  Level Cleveland Center
Mon 10:17:46 PM 41.1561 -82.1119 213° Southwest 158 182 6,200 -35 Level Indianapolis Center
Mon 10:18:47 PM 41.1192 -82.1453 214° Southwest 158 182 6,100 -49 Descending Indianapolis Center
Mon 10:19:48 PM 41.0806 -82.1769 212° Southwest 161 185 6,100  Level Indianapolis Center
Mon 10:20:49 PM 41.0425 -82.2075 211° Southwest 159 183 6,100  Level Indianapolis Center
Mon 10:21:50 PM 41.0036 -82.2408 213° Southwest 162 186 6,100 49 Level Indianapolis Center
Mon 10:22:51 PM 40.9692 -82.2772 219° Southwest 160 184 6,200 -443 Climbing Indianapolis Center
Mon 10:23:52 PM 40.9597 -82.3500 260° West 170 196 5,200 -984 Descending Indianapolis Center
Mon 10:24:53 PM 40.9503 -82.4158 259° West 178 205 4,200 -984 Descending Indianapolis Center
Mon 10:25:54 PM 40.9456 -82.4806 265° West 176 203 3,200 -595 Descending Indianapolis Center
Mon 10:26:54 PM 40.9389 -82.5375 261° West 167 192 3,000  Descending Indianapolis Center
Mon 10:27:55 PM 40.9383 -82.5806 269° West 133 153 3,200  Climbing Indianapolis Center
Mon 10:28:56 PM 40.9481 -82.6239 287° West 123 142 3,000 -98 Descending Indianapolis Center
Mon 10:29:57 PM 40.9339 -82.6572 241° Southwest 122 140 3,000 49 Level Indianapolis Center
Mon 10:30:58 PM 40.9058 -82.6425 158° South 117 135 3,100 98 Climbing Indianapolis Center
Mon 10:31:59 PM 40.8817 -82.6200 145° Southeast 111 128 3,200 -246 Climbing Indianapolis Center
Mon 10:33:00 PM 40.8633 -82.5792 121° Southeast 122 140 2,600 -689 Descending Indianapolis Center
Mon 10:34:01 PM 40.8414 -82.5456 131° Southeast 123 142 1,800 -393 Descending Indianapolis Center
Mon 10:35:02 PM 40.8228 -82.5156 129° Southeast 116 133 1,800 -49 Level Indianapolis Center
Mon 10:36:04 PM 40.8183 -82.4878 102° East 122 140 1,700 261 Descending Indianapolis Center
Mon 10:38:06 PM 40.7931 -82.5456 240° Southwest 92 106 2,600 656 Climbing Indianapolis Center
Mon 10:39:07 PM 40.7675 -82.5644 209° Southwest 104 120 3,700 984 Climbing Indianapolis Center
Mon 10:40:08 PM 40.7381 -82.5856 209° Southwest 115 132 4,600 787 Climbing Indianapolis Center
Mon 10:41:09 PM 40.7075 -82.6086 210° Southwest 124 143 5,300 787 Climbing Indianapolis Center
Mon 10:42:10 PM 40.6772 -82.6322 211° Southwest 125 144 6,200 393 Climbing Indianapolis Center
Mon 10:43:11 PM 40.6425 -82.6572 209° Southwest 137 158 6,100 -49 Descending Indianapolis Center
Mon 10:44:12 PM 40.6014 -82.6850 207° Southwest 158 182 6,100  Level Indianapolis Center
Mon 10:45:13 PM 40.5614 -82.7133 208° Southwest 163 188 6,100  Level Indianapolis Center
Mon 10:46:14 PM 40.5231 -82.7433 211° Southwest 160 184 6,100  Level Indianapolis Center
Mon 10:47:15 PM 40.4842 -82.7722 209° Southwest 160 184 6,100  Level Indianapolis Center
Mon 10:48:09 PM 40.4503 -82.8164 225° Southwest 160 184 6,100 -52 Level Indianapolis Center
Mon 10:49:10 PM 40.4167 -82.8508 218° Southwest 155 178 6,000 -516 Descending Indianapolis Center
Mon 10:50:17 PM 40.3719 -82.8922 215° Southwest 173 199 5,000 -694 Descending Indianapolis Center
Mon 10:51:11 PM 40.3406 -82.9242 218° Southwest 162 186 4,600 -385 Descending Indianapolis Center
Mon 10:52:06 PM 40.3156 -82.9542 222° Southwest 122 140 4,300 -343 Descending Indianapolis Center
Mon 10:52:21 PM 40.3097 -82.9572 202° Southwest 134 154 4,200  Descending Indianapolis Center
Mon 10:53:07 PM 40.2956 -82.9739 222° Southwest 70 81 4,300 -98 Climbing Indianapolis Center
Mon 10:53:22 PM 40.2917 -82.9761 204° Southwest 102 117 4,100 -273 Descending Indianapolis Center
Mon 10:54:13 PM 40.2664 -83.0006 216° Southwest 138 159 4,000 -482 Descending Indianapolis Center
Mon 10:55:14 PM 40.2306 -83.0372 218° Southwest 157 181 3,200 -344 Descending Indianapolis Center
Mon 10:56:15 PM 40.1969 -83.0689 216° Southwest 136 157 3,300 -45 Climbing Indianapolis Center
Mon 10:57:27 PM 40.1603 -83.1025 215° Southwest 145 167 3,100 -47 Descending Indianapolis Center
Mon 10:58:22 PM 40.1319 -83.1294 216° Southwest 131 151 3,200  Climbing Indianapolis Center
Mon 10:59:16 PM 40.1069 -83.1592 222° Southwest 130 150 3,100 -52 Descending Indianapolis Center
Mon 11:00:17 PM 40.0775 -83.1886 217° Southwest 134 154 3,100  Level Indianapolis Center
Mon 11:01:18 PM 40.0700 -83.2394 259° West 150 173 3,100 52 Level Indianapolis Center
Mon 11:02:12 PM 40.0800 -83.2733 291° West 151 174 3,200 80 Climbing Indianapolis Center
Mon 11:02:33 PM 40.0836 -83.2611 69° East 160 184 3,200 -218 Level Indianapolis Center
Mon 11:03:07 PM 40.0722 -83.2342 119° Southeast 141 162 3,000 -197 Descending Indianapolis Center
Mon 11:03:34 PM 40.0719 -83.2150 91° East 141 162 3,000 -300 Level Indianapolis Center
Mon 11:04:07 PM 40.0733 -83.1908 86° East 109 125 2,700 -581 Descending Indianapolis Center
Mon 11:04:36 PM 40.0739 -83.1733 88° East 124 143 2,400 -689 Descending Indianapolis Center
Mon 11:05:08 PM 40.0742 -83.1500 89° East 108 124 2,000 -590 Descending Indianapolis Center
Mon 11:05:37 PM 40.0756 -83.1325 84° East 116 133 1,800 -537 Descending Indianapolis Center
Mon 11:06:15 PM 40.0750 -83.1064 92° East 106 122 1,400 -590 Descending Indianapolis Center
Mon 11:06:38 PM 40.0767 -83.0942 80° East 109 125 1,200 -91 Descending Indianapolis Center
Mon 11:07:21 PM 40.0778 -83.0658 87° East 104 120 1,300 295 Climbing Indianapolis Center
Mon 11:07:39 PM 40.0792 -83.0558 80° East 107 123 1,500 764 Climbing Indianapolis Center
Mon 11:08:16 PM 40.0997 -83.0494 13° North 123 142 2,000 811 Climbing Indianapolis Center

Login

Don't have an account? Register now (free) for customized features, flight alerts, and more!